createdAt,value
2023-03-15T00:01:21.205Z,13.65
2023-03-15T00:03:49.011Z,13.64
2023-03-15T00:06:16.839Z,13.63
2023-03-15T00:08:47.741Z,13.60
2023-03-15T00:11:16.978Z,13.66
2023-03-15T00:13:45.213Z,13.66
2023-03-15T00:16:17.860Z,13.67
2023-03-15T00:18:47.448Z,13.65
2023-03-15T00:21:15.389Z,13.63
2023-03-15T00:23:42.638Z,13.61
2023-03-15T00:26:09.611Z,13.62
2023-03-15T00:28:37.338Z,13.58
2023-03-15T00:31:13.548Z,13.57
2023-03-15T00:33:41.785Z,13.61
2023-03-15T00:36:10.293Z,13.65
2023-03-15T00:38:39.392Z,13.65
2023-03-15T00:41:12.310Z,13.63
2023-03-15T00:43:41.080Z,13.59
2023-03-15T00:46:08.882Z,13.60
2023-03-15T00:48:36.984Z,13.60
2023-03-15T00:51:16.001Z,13.57
2023-03-15T00:53:45.969Z,13.56
2023-03-15T00:56:19.104Z,13.56
2023-03-15T00:58:46.585Z,13.51
2023-03-15T01:01:19.942Z,13.48
2023-03-15T01:03:47.608Z,13.50
2023-03-15T01:06:20.928Z,13.51
2023-03-15T01:08:48.807Z,13.49
2023-03-15T01:11:20.128Z,13.43
2023-03-15T01:13:47.356Z,13.35
2023-03-15T01:16:15.400Z,13.33
2023-03-15T01:18:44.157Z,13.32
2023-03-15T01:21:13.637Z,13.35
2023-03-15T01:23:41.359Z,13.34
2023-03-15T01:26:11.888Z,13.28
2023-03-15T01:28:39.186Z,13.29
2023-03-15T01:31:06.364Z,13.28
2023-03-15T01:33:34.192Z,13.28
2023-03-15T01:36:04.033Z,13.23
2023-03-15T01:38:31.277Z,13.23
2023-03-15T01:40:58.683Z,13.21
2023-03-15T01:43:28.015Z,13.23
2023-03-15T01:46:04.216Z,13.27
2023-03-15T01:48:47.129Z,13.29
2023-03-15T01:51:22.870Z,13.47
2023-03-15T01:54:22.055Z,13.48
2023-03-15T01:56:56.465Z,13.47
2023-03-15T01:59:37.084Z,13.50
2023-03-15T02:02:05.400Z,13.55
2023-03-15T02:04:46.666Z,13.58
2023-03-15T02:07:18.074Z,13.67
2023-03-15T02:09:55.113Z,13.90
2023-03-15T02:12:22.294Z,13.94
2023-03-15T02:14:51.952Z,13.95
2023-03-15T02:17:29.120Z,13.97
2023-03-15T02:20:12.506Z,14.04
2023-03-15T02:23:07.909Z,14.07
2023-03-15T02:26:13.812Z,14.19
2023-03-15T02:28:42.050Z,14.24
2023-03-15T02:31:09.549Z,14.28
2023-03-15T02:33:44.232Z,14.31
2023-03-15T02:36:21.805Z,14.35
2023-03-15T02:38:50.273Z,14.35
2023-03-15T02:41:22.165Z,14.31
2023-03-15T02:43:54.424Z,14.34
2023-03-15T02:46:22.576Z,14.38
2023-03-15T02:48:54.236Z,14.43
2023-03-15T02:51:24.831Z,14.49
2023-03-15T02:53:52.000Z,14.55
2023-03-15T02:56:19.862Z,14.52
2023-03-15T02:58:47.603Z,14.47
2023-03-15T03:01:16.522Z,14.44
2023-03-15T03:03:45.949Z,14.39
2023-03-15T03:06:18.117Z,14.37
2023-03-15T03:08:47.915Z,14.32
2023-03-15T03:11:18.508Z,14.34
2023-03-15T03:13:46.124Z,14.31
2023-03-15T03:16:13.505Z,14.27
2023-03-15T03:18:42.348Z,14.27
2023-03-15T03:21:10.098Z,14.19
2023-03-15T03:23:37.642Z,14.18
2023-03-15T03:26:16.923Z,14.09
2023-03-15T03:28:47.715Z,13.96
2023-03-15T03:31:18.990Z,13.88
2023-03-15T03:33:46.426Z,13.77
2023-03-15T03:36:13.859Z,13.70
2023-03-15T03:38:43.174Z,13.62
2023-03-15T03:41:11.470Z,13.50
2023-03-15T03:43:39.485Z,13.41
2023-03-15T03:46:07.521Z,13.27
2023-03-15T03:48:38.462Z,13.22
2023-03-15T03:51:07.084Z,13.13
2023-03-15T03:53:34.322Z,13.10
2023-03-15T03:56:04.226Z,13.05
2023-03-15T03:58:31.868Z,13.01
2023-03-15T04:01:05.529Z,12.97
2023-03-15T04:03:37.670Z,12.97
2023-03-15T04:06:09.920Z,12.89
2023-03-15T04:08:41.911Z,12.83
2023-03-15T04:11:12.390Z,12.75
2023-03-15T04:13:41.061Z,12.65
2023-03-15T04:16:09.269Z,12.60
2023-03-15T04:18:50.022Z,12.56
2023-03-15T04:21:17.229Z,12.53
2023-03-15T04:23:45.739Z,12.53
2023-03-15T04:26:34.706Z,12.58
2023-03-15T04:29:24.358Z,12.58
2023-03-15T04:32:24.364Z,12.59
2023-03-15T04:35:06.650Z,12.57
2023-03-15T04:37:44.058Z,12.51
2023-03-15T04:40:30.811Z,12.44
2023-03-15T04:43:33.262Z,12.34
2023-03-15T04:46:21.401Z,12.33
2023-03-15T04:49:28.174Z,12.29
2023-03-15T04:52:02.814Z,12.28
2023-03-15T04:54:59.263Z,12.27
2023-03-15T04:57:29.086Z,12.24
2023-03-15T05:00:16.696Z,12.20
2023-03-15T05:03:04.906Z,12.20
2023-03-15T05:05:51.421Z,12.22
2023-03-15T05:08:38.752Z,12.24
2023-03-15T05:11:06.287Z,12.24
2023-03-15T05:13:39.177Z,12.22
2023-03-15T05:16:26.279Z,12.25
2023-03-15T05:19:26.626Z,12.40
2023-03-15T05:22:29.235Z,12.63
2023-03-15T05:25:14.014Z,12.93
2023-03-15T05:27:59.694Z,13.23
2023-03-15T05:30:34.988Z,13.63
2023-03-15T05:33:12.121Z,13.94
2023-03-15T05:35:49.008Z,14.14
2023-03-15T05:38:33.495Z,14.42
2023-03-15T05:41:18.353Z,14.84
2023-03-15T05:44:08.480Z,15.30
2023-03-15T05:46:54.031Z,15.71
2023-03-15T05:49:59.737Z,16.23
2023-03-15T05:52:41.897Z,16.71
2023-03-15T05:55:32.345Z,17.46
2023-03-15T05:58:22.590Z,17.64
2023-03-15T06:01:13.328Z,17.98
2023-03-15T06:04:11.133Z,18.39
2023-03-15T06:06:39.743Z,18.70
2023-03-15T06:09:10.052Z,18.52
2023-03-15T06:11:37.278Z,18.62
2023-03-15T06:14:04.682Z,18.63
2023-03-15T06:16:41.811Z,18.72
2023-03-15T06:19:09.074Z,18.80
2023-03-15T06:21:36.256Z,19.13
2023-03-15T06:24:09.532Z,19.28
2023-03-15T06:26:36.940Z,19.15
2023-03-15T06:29:05.035Z,19.35
2023-03-15T06:31:33.128Z,19.32
2023-03-15T06:34:06.263Z,19.12
2023-03-15T06:36:34.950Z,19.20
2023-03-15T06:39:02.931Z,18.95
2023-03-15T06:41:30.401Z,19.02
2023-03-15T06:44:04.756Z,19.19
2023-03-15T06:46:32.155Z,18.82
2023-03-15T06:48:59.960Z,18.85
2023-03-15T06:51:27.771Z,19.11
2023-03-15T06:53:55.031Z,19.04
2023-03-15T06:56:22.789Z,19.38
2023-03-15T06:58:49.922Z,19.67
2023-03-15T07:01:17.219Z,19.72
2023-03-15T07:03:44.316Z,20.06
2023-03-15T07:06:11.358Z,20.17
2023-03-15T07:08:38.545Z,20.44
2023-03-15T07:11:06.504Z,20.07
2023-03-15T07:13:33.615Z,20.27
2023-03-15T07:16:00.955Z,20.35
2023-03-15T07:18:28.064Z,19.91
2023-03-15T07:21:04.520Z,19.74
2023-03-15T07:23:31.609Z,19.45
2023-03-15T07:25:58.737Z,19.54
2023-03-15T07:28:27.054Z,19.43
2023-03-15T07:30:59.966Z,19.31
2023-03-15T07:33:28.590Z,19.34
2023-03-15T07:35:55.902Z,19.52
2023-03-15T07:38:25.020Z,19.58
2023-03-15T07:40:52.686Z,19.45
2023-03-15T07:43:19.965Z,19.56
2023-03-15T07:45:51.106Z,19.29
2023-03-15T07:48:18.714Z,19.40
2023-03-15T07:50:46.402Z,19.64
2023-03-15T07:53:13.465Z,19.64
2023-03-15T07:55:40.688Z,19.81
2023-03-15T07:58:07.741Z,19.92
2023-03-15T08:00:35.090Z,20.13
2023-03-15T08:03:02.440Z,19.57
2023-03-15T08:05:29.724Z,19.37
2023-03-15T08:07:57.015Z,19.06
2023-03-15T08:10:24.350Z,18.47
2023-03-15T08:12:51.805Z,18.17
2023-03-15T08:15:19.836Z,17.66
2023-03-15T08:17:49.994Z,17.59
2023-03-15T08:20:20.951Z,17.54
2023-03-15T08:22:49.189Z,17.54
2023-03-15T08:25:21.716Z,17.65
2023-03-15T08:27:49.419Z,17.90
2023-03-15T08:30:19.351Z,17.54
2023-03-15T08:32:47.933Z,17.64
2023-03-15T08:35:17.025Z,17.84
2023-03-15T08:37:48.152Z,17.74
2023-03-15T08:40:26.305Z,17.59
2023-03-15T08:42:54.403Z,17.87
2023-03-15T08:45:24.901Z,18.01
2023-03-15T08:47:59.131Z,18.12
2023-03-15T08:50:27.170Z,17.96
2023-03-15T08:52:54.704Z,17.71
2023-03-15T08:55:21.987Z,17.69
2023-03-15T08:57:49.531Z,17.55
2023-03-15T09:00:20.875Z,17.58
2023-03-15T09:02:49.069Z,17.55
2023-03-15T09:05:17.311Z,17.49
2023-03-15T09:07:45.669Z,17.43
2023-03-15T09:10:15.537Z,17.51
2023-03-15T09:12:49.221Z,17.75
2023-03-15T09:15:17.008Z,17.69
2023-03-15T09:17:44.539Z,18.08
2023-03-15T09:20:16.996Z,18.21
2023-03-15T09:22:45.209Z,18.25
2023-03-15T09:25:12.216Z,18.15
2023-03-15T09:27:39.284Z,18.09
2023-03-15T09:30:07.228Z,18.36
2023-03-15T09:32:37.605Z,18.74
2023-03-15T09:35:08.130Z,18.89
2023-03-15T09:37:36.065Z,19.15
2023-03-15T09:40:04.753Z,19.20
2023-03-15T09:43:09.098Z,19.08
2023-03-15T09:46:19.749Z,19.06
2023-03-15T09:48:57.402Z,19.11
2023-03-15T09:51:35.572Z,19.10
2023-03-15T09:54:06.163Z,19.31
2023-03-15T09:56:46.142Z,19.38
2023-03-15T09:59:17.818Z,19.49
2023-03-15T10:01:47.814Z,19.78
2023-03-15T10:04:34.964Z,19.99
2023-03-15T10:07:04.227Z,20.30
2023-03-15T10:09:33.843Z,20.36
2023-03-15T10:12:13.572Z,20.45
2023-03-15T10:14:59.125Z,20.66
2023-03-15T10:18:11.172Z,20.74
2023-03-15T10:20:44.732Z,20.78
2023-03-15T10:23:43.512Z,20.95
2023-03-15T10:26:14.674Z,21.08
2023-03-15T10:28:43.986Z,21.23
2023-03-15T10:31:25.669Z,20.93
2023-03-15T10:33:57.468Z,20.93
2023-03-15T10:36:25.855Z,20.97
2023-03-15T10:38:53.300Z,21.18
2023-03-15T10:41:40.130Z,20.66
2023-03-15T10:44:17.014Z,20.23
2023-03-15T10:47:04.652Z,20.09
2023-03-15T10:49:36.878Z,20.41
2023-03-15T10:52:06.047Z,20.58
2023-03-15T10:54:35.600Z,20.84
2023-03-15T10:57:22.210Z,20.75
2023-03-15T11:00:00.419Z,20.09
2023-03-15T11:02:27.659Z,20.37
2023-03-15T11:05:04.727Z,20.17
2023-03-15T11:07:35.985Z,19.76
2023-03-15T11:10:06.465Z,19.09
2023-03-15T11:12:35.165Z,18.44
2023-03-15T11:15:14.389Z,17.96
2023-03-15T11:17:50.264Z,18.17
2023-03-15T11:20:38.425Z,18.30
2023-03-15T11:23:20.696Z,18.02
2023-03-15T11:25:47.954Z,17.88
2023-03-15T11:28:20.292Z,17.89
2023-03-15T11:30:48.767Z,18.08
2023-03-15T11:33:43.728Z,18.79
2023-03-15T11:36:19.398Z,18.66
2023-03-15T11:38:47.426Z,19.06
2023-03-15T11:41:32.828Z,18.78
2023-03-15T11:44:00.627Z,18.34
2023-03-15T11:46:39.426Z,18.46
2023-03-15T11:49:36.686Z,18.40
2023-03-15T11:52:05.133Z,18.32
2023-03-15T11:54:33.052Z,18.52
2023-03-15T11:57:07.863Z,18.28
2023-03-15T11:59:38.407Z,18.36
2023-03-15T12:02:11.544Z,18.28
2023-03-15T12:04:44.973Z,18.40
2023-03-15T12:07:18.953Z,18.67
2023-03-15T12:10:05.375Z,18.54
2023-03-15T12:12:32.393Z,18.57
2023-03-15T12:15:04.045Z,18.73
2023-03-15T12:17:31.141Z,18.68
2023-03-15T12:20:23.992Z,17.96
2023-03-15T12:22:52.897Z,17.61
2023-03-15T12:25:54.733Z,17.81
2023-03-15T12:28:51.141Z,18.37
2023-03-15T12:31:19.318Z,18.88
2023-03-15T12:33:53.035Z,19.31
2023-03-15T12:36:37.108Z,19.30
2023-03-15T12:39:16.273Z,19.30
2023-03-15T12:41:46.887Z,19.79
2023-03-15T12:44:33.423Z,20.01
2023-03-15T12:47:02.731Z,19.63
2023-03-15T12:49:36.417Z,19.31
2023-03-15T12:52:11.372Z,18.97
2023-03-15T12:54:49.924Z,18.78
2023-03-15T12:57:22.852Z,19.04
2023-03-15T13:00:21.898Z,18.33
2023-03-15T13:02:56.225Z,18.50
2023-03-15T13:05:38.150Z,18.23
2023-03-15T13:08:26.188Z,18.12
2023-03-15T13:11:11.987Z,18.09
2023-03-15T13:14:03.822Z,17.90
2023-03-15T13:16:44.657Z,18.20
2023-03-15T13:19:26.398Z,18.55
2023-03-15T13:22:18.319Z,18.88
2023-03-15T13:25:17.614Z,19.51
2023-03-15T13:28:04.142Z,19.49
2023-03-15T13:30:35.571Z,19.80
2023-03-15T13:33:06.680Z,19.61
2023-03-15T13:35:34.519Z,19.59
2023-03-15T13:38:22.402Z,19.82
2023-03-15T13:40:49.689Z,19.61
2023-03-15T13:43:17.373Z,19.78
2023-03-15T13:45:44.879Z,19.84
2023-03-15T13:48:13.399Z,19.78
2023-03-15T13:50:41.095Z,19.80
2023-03-15T13:53:08.409Z,19.71
2023-03-15T13:55:37.290Z,20.14
2023-03-15T13:58:09.441Z,20.46
2023-03-15T14:00:37.440Z,20.76
2023-03-15T14:03:22.586Z,21.06
2023-03-15T14:05:53.075Z,21.20
2023-03-15T14:08:31.693Z,21.17
2023-03-15T14:11:07.675Z,21.36
2023-03-15T14:13:47.498Z,21.27
2023-03-15T14:16:17.620Z,21.21
2023-03-15T14:18:44.825Z,21.14
2023-03-15T14:21:17.613Z,20.85
2023-03-15T14:23:47.779Z,20.57
2023-03-15T14:26:28.774Z,20.39
2023-03-15T14:29:18.250Z,19.77
2023-03-15T14:31:51.183Z,19.36
2023-03-15T14:34:25.485Z,19.29
2023-03-15T14:36:55.773Z,18.85
2023-03-15T14:39:32.592Z,18.40
2023-03-15T14:41:59.741Z,18.52
2023-03-15T14:44:26.866Z,18.55
2023-03-15T14:46:54.181Z,18.34
2023-03-15T14:49:27.043Z,18.27
2023-03-15T14:52:03.968Z,18.32
2023-03-15T14:54:32.777Z,18.26
2023-03-15T14:57:00.529Z,18.24
2023-03-15T14:59:27.705Z,18.02
2023-03-15T15:01:57.806Z,17.57
2023-03-15T15:04:34.288Z,17.50
2023-03-15T15:07:03.809Z,17.54
2023-03-15T15:09:31.770Z,17.56
2023-03-15T15:11:58.919Z,17.42
2023-03-15T15:14:26.230Z,17.23
2023-03-15T15:16:53.447Z,17.10
2023-03-15T15:19:20.850Z,16.98
2023-03-15T15:21:48.088Z,17.18
2023-03-15T15:24:17.692Z,17.45
2023-03-15T15:26:44.966Z,17.71
2023-03-15T15:29:16.793Z,18.17
2023-03-15T15:31:45.234Z,18.37
2023-03-15T15:34:13.222Z,18.29
2023-03-15T15:36:43.659Z,18.08
2023-03-15T15:39:21.092Z,17.91
2023-03-15T15:41:48.725Z,18.10
2023-03-15T15:44:19.005Z,18.27
2023-03-15T15:46:46.577Z,18.47
2023-03-15T15:49:13.813Z,18.39
2023-03-15T15:51:51.525Z,18.19
2023-03-15T15:54:22.099Z,17.89
2023-03-15T15:56:56.110Z,17.89
2023-03-15T15:59:25.831Z,17.91
2023-03-15T16:02:01.136Z,18.20
2023-03-15T16:04:29.680Z,18.34
2023-03-15T16:07:00.228Z,18.39
2023-03-15T16:09:30.207Z,18.40
2023-03-15T16:11:57.613Z,18.39
2023-03-15T16:14:24.913Z,18.24
2023-03-15T16:16:52.068Z,18.16
2023-03-15T16:19:19.371Z,18.14
2023-03-15T16:21:49.761Z,18.02
2023-03-15T16:24:22.176Z,17.98
2023-03-15T16:26:50.175Z,17.90
2023-03-15T16:29:23.331Z,17.83
2023-03-15T16:31:51.279Z,17.78
2023-03-15T16:34:19.914Z,17.73
2023-03-15T16:36:49.750Z,17.66
2023-03-15T16:39:17.617Z,17.58
2023-03-15T16:41:44.798Z,17.48
2023-03-15T16:44:13.954Z,17.40
2023-03-15T16:46:41.291Z,17.37
2023-03-15T16:49:08.789Z,17.34
2023-03-15T16:51:39.415Z,17.28
2023-03-15T16:54:19.655Z,17.17
2023-03-15T16:56:51.719Z,17.08
2023-03-15T16:59:18.908Z,17.07
2023-03-15T17:01:46.235Z,17.00
2023-03-15T17:04:15.026Z,16.92
2023-03-15T17:06:45.571Z,16.84
2023-03-15T17:09:19.761Z,16.77
2023-03-15T17:11:48.844Z,16.70
2023-03-15T17:14:23.616Z,16.62
2023-03-15T17:16:51.252Z,16.67
2023-03-15T17:19:18.557Z,16.70
2023-03-15T17:21:46.019Z,16.67
2023-03-15T17:24:14.057Z,16.57
2023-03-15T17:26:42.057Z,16.39
2023-03-15T17:29:09.544Z,16.36
2023-03-15T17:31:37.794Z,16.35
2023-03-15T17:34:08.274Z,16.33
2023-03-15T17:36:37.755Z,16.30
2023-03-15T17:39:06.945Z,16.22
2023-03-15T17:41:37.219Z,16.12
2023-03-15T17:44:05.018Z,16.02
2023-03-15T17:46:33.496Z,15.95
2023-03-15T17:49:04.147Z,15.89
2023-03-15T17:51:34.517Z,15.84
2023-03-15T17:54:02.208Z,15.77
2023-03-15T17:56:30.605Z,15.75
2023-03-15T17:58:58.018Z,15.73
2023-03-15T18:01:28.888Z,15.76
2023-03-15T18:03:57.672Z,15.74
2023-03-15T18:06:24.973Z,15.73
2023-03-15T18:08:52.590Z,15.68
2023-03-15T18:11:36.150Z,15.71
2023-03-15T18:14:04.065Z,15.73
2023-03-15T18:16:32.229Z,15.72
2023-03-15T18:18:59.513Z,15.73
2023-03-15T18:21:28.238Z,15.77
2023-03-15T18:23:55.664Z,15.83
2023-03-15T18:26:23.005Z,15.90
2023-03-15T18:28:51.681Z,15.91
2023-03-15T18:31:21.816Z,15.93
2023-03-15T18:33:50.539Z,15.96
2023-03-15T18:36:18.905Z,15.94
2023-03-15T18:38:46.647Z,15.94
2023-03-15T18:41:21.140Z,15.86
2023-03-15T18:43:52.398Z,15.78
2023-03-15T18:46:25.169Z,15.71
2023-03-15T18:48:54.136Z,15.74
2023-03-15T18:51:25.204Z,15.68
2023-03-15T18:53:53.507Z,15.68
2023-03-15T18:56:26.234Z,15.61
2023-03-15T18:58:55.031Z,15.62
2023-03-15T19:01:24.672Z,15.57
2023-03-15T19:03:53.697Z,15.32
2023-03-15T19:06:22.653Z,15.09
2023-03-15T19:08:53.767Z,14.85
2023-03-15T19:11:24.078Z,14.56
2023-03-15T19:13:51.674Z,14.39
2023-03-15T19:16:22.696Z,14.44
2023-03-15T19:18:52.301Z,14.41
2023-03-15T19:21:21.070Z,14.36
2023-03-15T19:23:48.816Z,14.56
2023-03-15T19:26:16.714Z,14.51
2023-03-15T19:28:45.309Z,14.39
2023-03-15T19:31:15.965Z,14.30
2023-03-15T19:33:45.067Z,14.18
2023-03-15T19:36:13.204Z,14.11
2023-03-15T19:38:41.023Z,14.01
2023-03-15T19:41:12.654Z,14.00
2023-03-15T19:43:43.681Z,14.02
2023-03-15T19:46:15.718Z,13.96
2023-03-15T19:48:43.854Z,13.88
2023-03-15T19:51:11.855Z,13.81
2023-03-15T19:53:39.950Z,13.84
2023-03-15T19:56:10.444Z,13.97
2023-03-15T19:58:39.465Z,14.00
2023-03-15T20:01:07.782Z,14.01
2023-03-15T20:03:36.104Z,14.10
2023-03-15T20:06:15.179Z,14.16
2023-03-15T20:08:44.102Z,14.15
2023-03-15T20:11:20.497Z,14.21
2023-03-15T20:13:48.717Z,14.36
2023-03-15T20:16:17.089Z,14.38
2023-03-15T20:18:46.038Z,14.38
2023-03-15T20:21:15.996Z,14.42
2023-03-15T20:23:48.688Z,14.50
2023-03-15T20:26:18.751Z,14.47
2023-03-15T20:28:47.722Z,14.43
2023-03-15T20:31:19.160Z,14.34
2023-03-15T20:33:51.761Z,14.32
2023-03-15T20:36:21.018Z,14.35
2023-03-15T20:38:49.680Z,14.48
2023-03-15T20:41:21.744Z,14.46
2023-03-15T20:43:52.820Z,14.46
2023-03-15T20:46:24.479Z,14.45
2023-03-15T20:48:54.578Z,14.29
2023-03-15T20:51:25.883Z,14.27
2023-03-15T20:53:55.975Z,14.15
2023-03-15T20:56:25.114Z,14.10
2023-03-15T20:58:55.446Z,14.06
2023-03-15T21:01:25.256Z,13.94
2023-03-15T21:03:56.672Z,13.83
2023-03-15T21:06:27.380Z,13.54
2023-03-15T21:08:57.502Z,13.37
2023-03-15T21:11:29.540Z,13.35
2023-03-15T21:13:58.510Z,13.30
2023-03-15T21:16:27.212Z,13.27
2023-03-15T21:18:57.278Z,13.26
2023-03-15T21:21:28.322Z,13.25
2023-03-15T21:23:57.171Z,13.28
2023-03-15T21:26:25.606Z,13.44
2023-03-15T21:28:55.617Z,13.68
2023-03-15T21:31:24.317Z,13.71
2023-03-15T21:33:53.544Z,13.70
2023-03-15T21:36:23.014Z,13.67
2023-03-15T21:38:52.669Z,13.53
2023-03-15T21:41:23.834Z,13.48
2023-03-15T21:43:52.383Z,13.36
2023-03-15T21:46:20.998Z,13.18
2023-03-15T21:48:50.244Z,13.03
2023-03-15T21:51:20.028Z,12.94
2023-03-15T21:53:51.330Z,12.91
2023-03-15T21:56:29.303Z,12.94
2023-03-15T21:59:03.716Z,12.94
2023-03-15T22:01:35.276Z,12.92
2023-03-15T22:04:03.908Z,12.87
2023-03-15T22:06:33.151Z,12.83
2023-03-15T22:09:01.399Z,12.80
2023-03-15T22:11:29.533Z,12.76
2023-03-15T22:13:57.799Z,12.75
2023-03-15T22:16:25.863Z,12.71
2023-03-15T22:18:53.561Z,12.70
2023-03-15T22:21:22.117Z,12.65
2023-03-15T22:23:49.495Z,12.62
2023-03-15T22:26:18.090Z,12.58
2023-03-15T22:28:45.338Z,12.52
2023-03-15T22:31:12.682Z,12.48
2023-03-15T22:33:42.316Z,12.44
2023-03-15T22:36:09.968Z,12.42
2023-03-15T22:38:40.313Z,12.43
2023-03-15T22:41:10.438Z,12.40
2023-03-15T22:43:39.076Z,12.47
2023-03-15T22:46:06.365Z,12.46
2023-03-15T22:48:33.653Z,12.47
2023-03-15T22:51:06.092Z,12.42
2023-03-15T22:53:34.436Z,12.33
2023-03-15T22:56:01.613Z,12.33
2023-03-15T22:58:28.780Z,12.32
2023-03-15T23:00:56.012Z,12.31
2023-03-15T23:03:23.461Z,12.31
2023-03-15T23:05:50.794Z,12.30
2023-03-15T23:08:17.887Z,12.32
2023-03-15T23:10:45.169Z,12.34
2023-03-15T23:13:12.373Z,12.35
2023-03-15T23:15:39.823Z,12.35
2023-03-15T23:18:07.681Z,12.36
2023-03-15T23:20:35.118Z,12.33
2023-03-15T23:23:02.178Z,12.33
2023-03-15T23:25:29.566Z,12.30
2023-03-15T23:27:57.206Z,12.27
2023-03-15T23:30:24.348Z,12.28
2023-03-15T23:32:57.829Z,12.31
2023-03-15T23:35:24.930Z,12.38
2023-03-15T23:37:53.177Z,12.40
2023-03-15T23:40:21.244Z,12.38
2023-03-15T23:42:48.840Z,12.42
2023-03-15T23:45:16.046Z,12.48
2023-03-15T23:47:43.225Z,12.50
2023-03-15T23:50:12.762Z,12.50
2023-03-15T23:52:40.377Z,12.48
2023-03-15T23:55:08.074Z,12.47
2023-03-15T23:57:35.607Z,12.40
